Impacts TAF Board INFO
FOR SITUATIONAL AWARENESS. NOT TO BE USED FOR FLIGHT PLANNING PURPOSES.
IDs:

KBFM - Mobile/Downtown Arpt, AL, US

Issued at 2026 UTC 24 Apr 2018
Updated at 2049 UTC 24 Apr 2018
Potential Impact None Slight Moderate High
Time1953Z 24/21Z 24/22Z 24/23Z 25/00Z 25/01Z 25/02Z 25/03Z 25/04Z 25/05Z 25/06Z 25/07Z 25/08Z 25/09Z>>
Type OBS PRVL PRVL PRVL PRVL PRVL PRVL PRVL PRVL PRVL PRVL PRVL PRVL PRVL
VIS 10 >6 >6 >6 >6 >6 >6 >6 >6 >6 >6 >6 >6 >6
CIG -- -- -- -- -- -- -- -- -- -- -- -- -- --
Cover SCT SCT SCT SCT SCT SKC SKC SKC SKC SKC SKC SKC SKC SKC
FltCat VFR VFR VFR VFR VFR VFR VFR VFR VFR VFR VFR VFR VFR VFR
WX -- -- -- -- -- -- -- -- -- -- -- -- -- --
WDir 340 310 310 310 310 330 330 330 330 330 330 330 330 330
WSpd 18 11 11 11 11 4 4 4 4 4 4 4 4 4
WGst 21 -- -- -- -- -- -- -- -- -- -- -- -- --

Raw TAF
KBFM 242026Z 2420/2518 31011KT P6SM SCT050
  FM250100 33004KT P6SM SKC


Raw METAR
KBFM 241953Z 34018G21KT 10SM SCT050 25/14 A2994 RMK AO2 SLP138 T02500139
KBFM 241853Z 29010G18KT 10SM SCT048 BKN060 26/13 A2996 RMK AO2 SLP144 T02560133
KBFM 241753Z 28005KT 10SM SCT050 BKN060 26/14 A2997 RMK AO2 SLP148 T02560144 10256 20139 58016

METAR Board
Radar Display
Forecast Discussion

FOR SITUATIONAL AWARENESS. NOT TO BE USED FOR FLIGHT PLANNING PURPOSES.